createdAt,value
2023-01-09T00:01:27.017Z,97124.84
2023-01-09T00:03:53.641Z,97126.75
2023-01-09T00:06:21.679Z,97119.00
2023-01-09T00:08:48.417Z,97122.44
2023-01-09T00:11:15.146Z,97120.13
2023-01-09T00:13:41.683Z,97119.44
2023-01-09T00:16:09.233Z,97118.28
2023-01-09T00:18:36.497Z,97107.38
2023-01-09T00:21:04.535Z,97106.25
2023-01-09T00:23:32.505Z,97101.56
2023-01-09T00:26:04.275Z,97099.56
2023-01-09T00:28:31.138Z,97100.69
2023-01-09T00:30:58.391Z,97090.22
2023-01-09T00:33:28.486Z,97093.72
2023-01-09T00:35:55.037Z,97099.13
2023-01-09T00:38:21.541Z,97093.38
2023-01-09T00:40:49.495Z,97099.56
2023-01-09T00:43:16.581Z,97096.84
2023-01-09T00:45:43.231Z,97101.13
2023-01-09T00:48:13.915Z,97088.81
2023-01-09T00:50:40.655Z,97084.19
2023-01-09T00:53:13.418Z,97092.66
2023-01-09T00:55:40.462Z,97096.84
2023-01-09T00:58:08.766Z,97086.97
2023-01-09T01:00:35.579Z,97083.81
2023-01-09T01:03:02.407Z,97084.97
2023-01-09T01:05:29.171Z,97088.03
2023-01-09T01:07:55.677Z,97085.59
2023-01-09T01:10:24.116Z,97092.22
2023-01-09T01:12:51.997Z,97086.81
2023-01-09T01:15:20.492Z,97093.06
2023-01-09T01:17:47.479Z,97083.41
2023-01-09T01:20:17.276Z,97090.09
2023-01-09T01:22:43.939Z,97084.00
2023-01-09T01:25:11.469Z,97085.63
2023-01-09T01:27:38.583Z,97093.44
2023-01-09T01:30:06.715Z,97089.53
2023-01-09T01:32:34.837Z,97091.91
2023-01-09T01:35:01.350Z,97088.75
2023-01-09T01:37:28.185Z,97089.47
2023-01-09T01:39:55.125Z,97091.13
2023-01-09T01:42:21.844Z,97087.19
2023-01-09T01:45:05.826Z,97081.91
2023-01-09T01:47:41.249Z,97083.06
2023-01-09T01:50:13.235Z,97083.91
2023-01-09T01:52:40.204Z,97092.81
2023-01-09T01:55:09.238Z,97069.97
2023-01-09T01:57:37.723Z,97074.00
2023-01-09T02:00:06.667Z,97067.38
2023-01-09T02:02:34.823Z,97074.31
2023-01-09T02:05:02.168Z,97064.19
2023-01-09T02:07:28.915Z,97073.78
2023-01-09T02:09:56.475Z,97059.78
2023-01-09T02:12:25.235Z,97057.84
2023-01-09T02:14:56.102Z,97057.50
2023-01-09T02:17:40.724Z,97049.75
2023-01-09T02:20:33.899Z,97051.38
2023-01-09T02:23:30.059Z,97055.16
2023-01-09T02:26:21.648Z,97043.75
2023-01-09T02:29:14.395Z,97043.66
2023-01-09T02:31:48.015Z,97041.31
2023-01-09T02:34:24.528Z,97038.25
2023-01-09T02:37:01.312Z,97039.47
2023-01-09T02:39:35.634Z,97030.22
2023-01-09T02:42:08.993Z,97031.38
2023-01-09T02:44:35.727Z,97029.88
2023-01-09T02:47:06.846Z,97033.38
2023-01-09T02:49:36.798Z,97026.75
2023-01-09T02:52:26.867Z,97036.69
2023-01-09T02:55:03.637Z,97032.84
2023-01-09T02:57:47.743Z,97027.09
2023-01-09T03:00:27.293Z,97029.00
2023-01-09T03:02:58.137Z,97031.81
2023-01-09T03:05:30.224Z,97026.75
2023-01-09T03:08:01.495Z,97034.34
2023-01-09T03:10:35.139Z,97032.81
2023-01-09T03:13:02.959Z,97035.41
2023-01-09T03:15:34.146Z,97034.53
2023-01-09T03:18:05.025Z,97033.34
2023-01-09T03:20:32.344Z,97032.91
2023-01-09T03:23:00.973Z,97041.72
2023-01-09T03:25:29.571Z,97047.56
2023-01-09T03:27:57.893Z,97049.56
2023-01-09T03:30:26.282Z,97048.34
2023-01-09T03:32:52.955Z,97047.22
2023-01-09T03:35:21.184Z,97045.34
2023-01-09T03:37:47.675Z,97049.28
2023-01-09T03:40:14.395Z,97044.75
2023-01-09T03:42:41.227Z,97040.91
2023-01-09T03:45:08.285Z,97042.03
2023-01-09T03:47:34.978Z,97040.38
2023-01-09T03:50:01.818Z,97062.81
2023-01-09T03:52:29.772Z,97066.22
2023-01-09T03:54:56.412Z,97064.66
2023-01-09T03:57:22.955Z,97065.28
2023-01-09T03:59:49.732Z,97065.22
2023-01-09T04:02:16.391Z,97071.16
2023-01-09T04:04:43.136Z,97075.69
2023-01-09T04:07:09.639Z,97057.75
2023-01-09T04:09:37.610Z,97062.31
2023-01-09T04:12:04.709Z,97073.81
2023-01-09T04:14:31.415Z,97081.03
2023-01-09T04:16:57.999Z,97078.59
2023-01-09T04:19:24.542Z,97083.50
2023-01-09T04:21:51.302Z,97099.78
2023-01-09T04:24:17.900Z,97109.34
2023-01-09T04:26:46.027Z,97114.34
2023-01-09T04:29:12.584Z,97116.31
2023-01-09T04:31:39.319Z,97128.25
2023-01-09T04:34:05.816Z,97145.38
2023-01-09T04:36:32.378Z,97145.38
2023-01-09T04:38:58.876Z,97157.41
2023-01-09T04:41:25.565Z,97163.47
2023-01-09T04:43:53.585Z,97169.94
2023-01-09T04:46:20.076Z,97170.34
2023-01-09T04:48:46.648Z,97158.75
2023-01-09T04:51:14.086Z,97154.88
2023-01-09T04:53:40.650Z,97154.88
2023-01-09T04:56:07.572Z,97163.75
2023-01-09T04:58:34.095Z,97169.03
2023-01-09T05:01:02.294Z,97172.53
2023-01-09T05:03:28.867Z,97184.13
2023-01-09T05:05:55.554Z,97186.38
2023-01-09T05:08:22.071Z,97199.41
2023-01-09T05:10:48.644Z,97195.16
2023-01-09T05:13:15.371Z,97207.44
2023-01-09T05:15:41.888Z,97206.22
2023-01-09T05:18:09.823Z,97213.53
2023-01-09T05:20:36.388Z,97213.44
2023-01-09T05:23:03.059Z,97211.09
2023-01-09T05:25:29.668Z,97215.59
2023-01-09T05:27:56.165Z,97226.75
2023-01-09T05:30:22.753Z,97222.06
2023-01-09T05:32:49.265Z,97223.50
2023-01-09T05:35:17.409Z,97230.03
2023-01-09T05:37:44.059Z,97234.66
2023-01-09T05:40:11.733Z,97233.53
2023-01-09T05:42:38.432Z,97233.88
2023-01-09T05:45:06.377Z,97233.06
2023-01-09T05:47:32.963Z,97246.47
2023-01-09T05:49:59.473Z,97254.56
2023-01-09T05:52:27.328Z,97246.47
2023-01-09T05:54:54.091Z,97254.81
2023-01-09T05:57:20.863Z,97260.56
2023-01-09T05:59:47.365Z,97265.09
2023-01-09T06:02:13.994Z,97258.19
2023-01-09T06:04:40.763Z,97270.50
2023-01-09T06:07:07.339Z,97271.03
2023-01-09T06:09:35.407Z,97271.34
2023-01-09T06:12:01.968Z,97269.69
2023-01-09T06:14:28.629Z,97273.84
2023-01-09T06:16:55.442Z,97276.09
2023-01-09T06:19:22.175Z,97282.09
2023-01-09T06:21:48.691Z,97290.06
2023-01-09T06:24:15.402Z,97293.88
2023-01-09T06:26:43.413Z,97294.53
2023-01-09T06:29:09.922Z,97311.53
2023-01-09T06:31:36.614Z,97304.88
2023-01-09T06:34:03.151Z,97312.88
2023-01-09T06:36:29.686Z,97317.59
2023-01-09T06:38:56.241Z,97319.94
2023-01-09T06:41:22.952Z,97318.81
2023-01-09T06:43:50.950Z,97323.88
2023-01-09T06:46:17.557Z,97324.09
2023-01-09T06:48:44.348Z,97327.19
2023-01-09T06:51:10.848Z,97329.41
2023-01-09T06:53:37.421Z,97336.63
2023-01-09T06:56:04.491Z,97342.47
2023-01-09T06:58:31.011Z,97334.03
2023-01-09T07:00:59.765Z,97343.00
2023-01-09T07:03:26.348Z,97346.06
2023-01-09T07:05:52.986Z,97347.19
2023-01-09T07:08:19.580Z,97348.53
2023-01-09T07:10:46.086Z,97356.19
2023-01-09T07:13:12.673Z,97359.78
2023-01-09T07:15:39.239Z,97361.16
2023-01-09T07:18:07.205Z,97373.72
2023-01-09T07:20:33.805Z,97370.69
2023-01-09T07:23:00.491Z,97379.34
2023-01-09T07:25:27.053Z,97380.81
2023-01-09T07:27:53.571Z,97369.91
2023-01-09T07:30:20.075Z,97383.63
2023-01-09T07:32:46.732Z,97387.47
2023-01-09T07:35:14.627Z,97378.91
2023-01-09T07:37:41.212Z,97385.53
2023-01-09T07:40:08.886Z,97395.44
2023-01-09T07:42:35.588Z,97388.47
2023-01-09T07:45:02.250Z,97398.16
2023-01-09T07:47:28.829Z,97392.09
2023-01-09T07:49:55.405Z,97387.81
2023-01-09T07:52:23.314Z,97397.13
2023-01-09T07:54:49.836Z,97399.16
2023-01-09T07:57:16.353Z,97398.81
2023-01-09T07:59:43.064Z,97396.34
2023-01-09T08:02:09.914Z,97399.16
2023-01-09T08:04:36.482Z,97406.91
2023-01-09T08:07:03.177Z,97409.63
2023-01-09T08:09:31.070Z,97421.53
2023-01-09T08:11:57.795Z,97398.44
2023-01-09T08:14:24.370Z,97408.81
2023-01-09T08:16:50.992Z,97413.09
2023-01-09T08:19:17.547Z,97415.81
2023-01-09T08:21:44.103Z,97428.16
2023-01-09T08:24:10.927Z,97427.47
2023-01-09T08:26:39.017Z,97426.59
2023-01-09T08:29:05.593Z,97431.63
2023-01-09T08:31:32.146Z,97433.69
2023-01-09T08:33:58.889Z,97423.41
2023-01-09T08:36:25.492Z,97426.13
2023-01-09T08:38:52.062Z,97426.69
2023-01-09T08:41:18.734Z,97428.84
2023-01-09T08:43:46.640Z,97425.81
2023-01-09T08:46:19.433Z,97432.78
2023-01-09T08:48:46.118Z,97427.28
2023-01-09T08:51:12.685Z,97432.44
2023-01-09T08:53:39.238Z,97433.34
2023-01-09T08:56:06.051Z,97440.06
2023-01-09T08:58:32.795Z,97440.19
2023-01-09T09:01:00.800Z,97434.78
2023-01-09T09:03:27.366Z,97437.84
2023-01-09T09:05:53.900Z,97438.28
2023-01-09T09:08:20.453Z,97435.59
2023-01-09T09:10:47.071Z,97433.56
2023-01-09T09:13:13.707Z,97447.50
2023-01-09T09:15:40.318Z,97445.94
2023-01-09T09:18:08.373Z,97455.28
2023-01-09T09:20:36.661Z,97470.13
2023-01-09T09:23:04.143Z,97455.94
2023-01-09T09:25:30.936Z,97458.19
2023-01-09T09:27:57.557Z,97444.25
2023-01-09T09:30:24.703Z,97451.66
2023-01-09T09:32:51.274Z,97457.84
2023-01-09T09:35:19.489Z,97463.63
2023-01-09T09:37:53.693Z,97458.88
2023-01-09T09:40:27.679Z,97467.44
2023-01-09T09:43:10.696Z,97453.94
2023-01-09T09:45:50.058Z,97463.63
2023-01-09T09:48:27.684Z,97463.63
2023-01-09T09:51:12.769Z,97472.16
2023-01-09T09:53:47.651Z,97472.94
2023-01-09T09:56:17.512Z,97492.09
2023-01-09T09:58:47.859Z,97464.50
2023-01-09T10:01:20.672Z,97475.31
2023-01-09T10:03:50.257Z,97472.59
2023-01-09T10:06:27.831Z,97467.78
2023-01-09T10:09:00.862Z,97452.53
2023-01-09T10:11:33.919Z,97458.56
2023-01-09T10:14:00.513Z,97447.03
2023-01-09T10:16:40.130Z,97449.19
2023-01-09T10:19:16.931Z,97445.91
2023-01-09T10:21:54.299Z,97441.94
2023-01-09T10:24:31.668Z,97436.72
2023-01-09T10:27:02.132Z,97444.16
2023-01-09T10:29:50.953Z,97453.06
2023-01-09T10:32:32.497Z,97455.72
2023-01-09T10:35:17.783Z,97454.03
2023-01-09T10:37:47.326Z,97452.19
2023-01-09T10:40:22.797Z,97448.34
2023-01-09T10:42:53.763Z,97454.16
2023-01-09T10:45:24.080Z,97447.50
2023-01-09T10:47:50.695Z,97452.47
2023-01-09T10:50:20.432Z,97452.81
2023-01-09T10:52:50.500Z,97455.44
2023-01-09T10:55:22.174Z,97467.25
2023-01-09T10:57:53.733Z,97462.38
2023-01-09T11:00:23.745Z,97462.94
2023-01-09T11:02:51.216Z,97465.31
2023-01-09T11:05:20.915Z,97460.00
2023-01-09T11:07:53.396Z,97458.06
2023-01-09T11:10:20.156Z,97459.84
2023-01-09T11:12:46.917Z,97467.16
2023-01-09T11:15:24.750Z,97469.53
2023-01-09T11:17:52.232Z,97474.41
2023-01-09T11:20:23.363Z,97470.59
2023-01-09T11:22:52.577Z,97469.44
2023-01-09T11:25:21.702Z,97470.78
2023-01-09T11:28:04.290Z,97479.00
2023-01-09T11:30:31.591Z,97481.25
2023-01-09T11:32:58.980Z,97471.13
2023-01-09T11:35:28.640Z,97480.00
2023-01-09T11:38:07.374Z,97471.13
2023-01-09T11:40:45.892Z,97465.03
2023-01-09T11:43:16.510Z,97467.63
2023-01-09T11:46:00.212Z,97473.03
2023-01-09T11:48:40.262Z,97468.97
2023-01-09T11:51:19.780Z,97479.63
2023-01-09T11:53:58.028Z,97470.38
2023-01-09T11:56:24.727Z,97474.91
2023-01-09T11:58:51.369Z,97470.63
2023-01-09T12:02:11.871Z,97477.50
2023-01-09T12:04:42.598Z,97474.59
2023-01-09T12:07:37.687Z,97472.50
2023-01-09T12:10:26.702Z,97475.69
2023-01-09T12:13:02.338Z,97480.63
2023-01-09T12:15:36.678Z,97478.25
2023-01-09T12:18:14.044Z,97468.34
2023-01-09T12:20:53.861Z,97472.84
2023-01-09T12:23:37.791Z,97469.47
2023-01-09T12:26:16.833Z,97471.72
2023-01-09T12:28:58.334Z,97464.38
2023-01-09T12:31:40.566Z,97468.53
2023-01-09T12:34:23.684Z,97462.38
2023-01-09T12:37:02.035Z,97463.50
2023-01-09T12:39:39.627Z,97466.44
2023-01-09T12:42:29.586Z,97469.16
2023-01-09T12:45:01.463Z,97470.28
2023-01-09T12:47:45.426Z,97462.50
2023-01-09T12:50:30.305Z,97457.09
2023-01-09T12:53:05.978Z,97460.06
2023-01-09T12:55:35.805Z,97454.88
2023-01-09T12:58:08.691Z,97456.81
2023-01-09T13:00:40.333Z,97471.13
2023-01-09T13:03:16.476Z,97472.88
2023-01-09T13:05:47.169Z,97471.06
2023-01-09T13:08:17.821Z,97464.56
2023-01-09T13:10:47.739Z,97462.50
2023-01-09T13:13:20.814Z,97466.09
2023-01-09T13:15:53.436Z,97476.59
2023-01-09T13:18:26.401Z,97475.19
2023-01-09T13:20:54.414Z,97476.16
2023-01-09T13:23:32.846Z,97481.13
2023-01-09T13:26:04.008Z,97485.41
2023-01-09T13:28:36.165Z,97480.66
2023-01-09T13:31:44.638Z,97478.31
2023-01-09T13:34:21.825Z,97489.91
2023-01-09T13:36:51.706Z,97486.97
2023-01-09T13:39:24.060Z,97487.66
2023-01-09T13:41:54.773Z,97490.72
2023-01-09T13:44:25.819Z,97486.97
2023-01-09T13:46:54.856Z,97490.81
2023-01-09T13:49:58.546Z,97499.13
2023-01-09T13:52:30.601Z,97494.66
2023-01-09T13:55:15.046Z,97499.50
2023-01-09T13:57:43.940Z,97493.38
2023-01-09T14:00:49.981Z,97500.81
2023-01-09T14:03:20.059Z,97506.94
2023-01-09T14:06:17.722Z,97503.78
2023-01-09T14:08:47.667Z,97507.34
2023-01-09T14:11:22.859Z,97503.91
2023-01-09T14:14:00.122Z,97511.72
2023-01-09T14:16:29.965Z,97507.81
2023-01-09T14:19:02.852Z,97517.09
2023-01-09T14:21:47.952Z,97517.13
2023-01-09T14:24:22.521Z,97524.72
2023-01-09T14:26:51.028Z,97530.59
2023-01-09T14:29:39.114Z,97535.34
2023-01-09T14:32:41.989Z,97546.41
2023-01-09T14:35:15.290Z,97542.81
2023-01-09T14:37:43.397Z,97547.34
2023-01-09T14:40:19.128Z,97557.94
2023-01-09T14:42:49.235Z,97564.78
2023-01-09T14:45:20.692Z,97567.72
2023-01-09T14:47:52.821Z,97584.22
2023-01-09T14:50:30.423Z,97587.94
2023-01-09T14:53:03.659Z,97600.75
2023-01-09T14:55:35.656Z,97600.63
2023-01-09T14:58:12.757Z,97610.97
2023-01-09T15:00:47.583Z,97616.03
2023-01-09T15:03:15.994Z,97623.34
2023-01-09T15:05:44.213Z,97636.22
2023-01-09T15:08:14.600Z,97625.66
2023-01-09T15:10:44.353Z,97640.94
2023-01-09T15:13:16.904Z,97647.34
2023-01-09T15:15:48.354Z,97651.94
2023-01-09T15:18:23.256Z,97655.50
2023-01-09T15:20:57.114Z,97649.25
2023-01-09T15:23:27.089Z,97661.16
2023-01-09T15:25:53.877Z,97658.78
2023-01-09T15:28:25.049Z,97665.81
2023-01-09T15:30:56.381Z,97664.59
2023-01-09T15:33:24.790Z,97675.25
2023-01-09T15:35:52.783Z,97675.88
2023-01-09T15:38:23.967Z,97688.59
2023-01-09T15:40:53.554Z,97680.69
2023-01-09T15:43:20.670Z,97677.06
2023-01-09T15:45:48.323Z,97680.44
2023-01-09T15:48:21.309Z,97680.13
2023-01-09T15:50:51.414Z,97684.47
2023-01-09T15:53:19.826Z,97686.72
2023-01-09T15:56:01.642Z,97692.59
2023-01-09T15:58:32.245Z,97683.59
2023-01-09T16:01:01.374Z,97687.41
2023-01-09T16:03:28.587Z,97694.56
2023-01-09T16:05:59.705Z,97701.25
2023-01-09T16:08:28.483Z,97703.78
2023-01-09T16:10:58.873Z,97717.94
2023-01-09T16:13:28.666Z,97725.38
2023-01-09T16:15:56.205Z,97724.47
2023-01-09T16:18:29.016Z,97730.81
2023-01-09T16:21:06.338Z,97731.91
2023-01-09T16:23:35.688Z,97734.00
2023-01-09T16:26:05.282Z,97745.09
2023-01-09T16:28:31.930Z,97744.78
2023-01-09T16:31:00.843Z,97759.06
2023-01-09T16:33:29.390Z,97759.69
2023-01-09T16:35:56.383Z,97761.59
2023-01-09T16:38:25.038Z,97773.19
2023-01-09T16:41:03.512Z,97776.97
2023-01-09T16:43:30.053Z,97784.28
2023-01-09T16:45:56.641Z,97787.25
2023-01-09T16:48:23.198Z,97775.69
2023-01-09T16:50:49.700Z,97788.06
2023-01-09T16:53:17.839Z,97783.78
2023-01-09T16:55:46.677Z,97788.38
2023-01-09T16:58:15.613Z,97792.19
2023-01-09T17:00:43.098Z,97799.63
2023-01-09T17:03:13.650Z,97799.81
2023-01-09T17:05:40.577Z,97809.28
2023-01-09T17:08:19.623Z,97799.63
2023-01-09T17:10:47.892Z,97805.19
2023-01-09T17:13:14.514Z,97815.16
2023-01-09T17:15:41.191Z,97812.13
2023-01-09T17:18:14.205Z,97832.25
2023-01-09T17:20:44.062Z,97830.97
2023-01-09T17:23:10.674Z,97840.16
2023-01-09T17:25:37.993Z,97836.38
2023-01-09T17:28:06.314Z,97844.91
2023-01-09T17:30:32.865Z,97845.72
2023-01-09T17:32:59.455Z,97846.00
2023-01-09T17:35:26.023Z,97850.44
2023-01-09T17:37:52.559Z,97859.78
2023-01-09T17:40:20.615Z,97857.88
2023-01-09T17:42:47.244Z,97857.41
2023-01-09T17:45:15.448Z,97872.78
2023-01-09T17:47:42.018Z,97879.44
2023-01-09T17:50:17.496Z,97885.13
2023-01-09T17:52:44.121Z,97885.94
2023-01-09T17:55:10.744Z,97895.31
2023-01-09T17:57:37.429Z,97904.00
2023-01-09T18:00:05.188Z,97902.41
2023-01-09T18:02:33.241Z,97912.25
2023-01-09T18:04:59.942Z,97903.38
2023-01-09T18:07:26.518Z,97911.28
2023-01-09T18:09:53.270Z,97913.34
2023-01-09T18:12:19.868Z,97908.13
2023-01-09T18:14:47.866Z,97914.75
2023-01-09T18:17:14.525Z,97921.75
2023-01-09T18:19:42.468Z,97926.97
2023-01-09T18:22:09.026Z,97931.72
2023-01-09T18:24:35.835Z,97934.41
2023-01-09T18:27:02.529Z,97945.50
2023-01-09T18:29:29.117Z,97950.91
2023-01-09T18:31:55.820Z,97947.56
2023-01-09T18:34:22.366Z,97948.69
2023-01-09T18:36:50.515Z,97952.16
2023-01-09T18:39:17.120Z,97961.22
2023-01-09T18:41:43.689Z,97965.97
2023-01-09T18:44:10.265Z,97975.50
2023-01-09T18:46:38.420Z,97977.22
2023-01-09T18:49:05.272Z,97991.81
2023-01-09T18:51:34.384Z,98002.59
2023-01-09T18:54:02.337Z,97991.50
2023-01-09T18:56:29.041Z,97997.38
2023-01-09T18:58:57.058Z,97997.06
2023-01-09T19:01:24.287Z,98016.06
2023-01-09T19:03:51.024Z,98010.69
2023-01-09T19:06:18.006Z,98010.06
2023-01-09T19:08:44.752Z,98017.97
2023-01-09T19:11:12.699Z,98020.97
2023-01-09T19:13:39.533Z,98022.13
2023-01-09T19:16:08.358Z,98023.22
2023-01-09T19:18:36.681Z,98034.16
2023-01-09T19:21:09.666Z,98040.50
2023-01-09T19:23:36.227Z,98040.34
2023-01-09T19:26:05.528Z,98047.63
2023-01-09T19:28:33.557Z,98054.47
2023-01-09T19:31:00.173Z,98052.41
2023-01-09T19:33:26.907Z,98066.66
2023-01-09T19:35:53.658Z,98065.88
2023-01-09T19:38:20.994Z,98069.69
2023-01-09T19:40:47.761Z,98070.31
2023-01-09T19:43:14.959Z,98072.19
2023-01-09T19:45:42.906Z,98066.97
2023-01-09T19:48:09.592Z,98072.06
2023-01-09T19:50:45.133Z,98073.16
2023-01-09T19:53:11.669Z,98075.69
2023-01-09T19:55:38.240Z,98083.31
2023-01-09T19:58:05.012Z,98084.44
2023-01-09T20:00:39.824Z,98090.63
2023-01-09T20:03:07.701Z,98097.75
2023-01-09T20:05:34.298Z,98102.03
2023-01-09T20:08:00.859Z,98104.72
2023-01-09T20:10:27.394Z,98121.88
2023-01-09T20:12:54.053Z,98120.75
2023-01-09T20:15:20.597Z,98119.63
2023-01-09T20:17:47.166Z,98124.88
2023-01-09T20:20:15.644Z,98135.66
2023-01-09T20:22:42.172Z,98121.88
2023-01-09T20:25:09.503Z,98124.56
2023-01-09T20:27:36.212Z,98138.03
2023-01-09T20:30:02.926Z,98145.78
2023-01-09T20:32:29.450Z,98159.13
2023-01-09T20:34:55.988Z,98161.50
2023-01-09T20:37:23.874Z,98161.97
2023-01-09T20:39:50.463Z,98168.66
2023-01-09T20:42:17.138Z,98164.34
2023-01-09T20:44:43.723Z,98168.97
2023-01-09T20:47:10.280Z,98174.22
2023-01-09T20:49:36.889Z,98177.22
2023-01-09T20:52:03.686Z,98175.44
2023-01-09T20:54:31.631Z,98181.34
2023-01-09T20:56:58.188Z,98189.13
2023-01-09T20:59:24.722Z,98194.00
2023-01-09T21:01:51.264Z,98200.19
2023-01-09T21:04:17.941Z,98198.31
2023-01-09T21:06:44.645Z,98205.28
2023-01-09T21:09:11.328Z,98212.75
2023-01-09T21:11:39.283Z,98212.75
2023-01-09T21:14:05.903Z,98214.47
2023-01-09T21:16:32.544Z,98217.81
2023-01-09T21:18:59.335Z,98222.09
2023-01-09T21:21:26.789Z,98225.28
2023-01-09T21:23:55.335Z,98224.78
2023-01-09T21:26:23.464Z,98227.81
2023-01-09T21:28:53.483Z,98226.69
2023-01-09T21:31:22.646Z,98228.91
2023-01-09T21:33:49.256Z,98234.13
2023-01-09T21:36:16.062Z,98245.72
2023-01-09T21:38:42.676Z,98233.81
2023-01-09T21:41:09.679Z,98234.44
2023-01-09T21:43:36.378Z,98230.63
2023-01-09T21:46:04.950Z,98234.13
2023-01-09T21:48:31.593Z,98241.72
2023-01-09T21:51:02.232Z,98245.06
2023-01-09T21:53:29.599Z,98254.25
2023-01-09T21:55:56.469Z,98273.91
2023-01-09T21:58:23.068Z,98274.88
2023-01-09T22:00:49.682Z,98283.63
2023-01-09T22:03:17.583Z,98291.09
2023-01-09T22:05:44.077Z,98293.78
2023-01-09T22:08:10.692Z,98295.22
2023-01-09T22:10:37.265Z,98309.00
2023-01-09T22:13:03.856Z,98315.50
2023-01-09T22:15:30.441Z,98313.59
2023-01-09T22:17:57.168Z,98319.00
2023-01-09T22:20:25.033Z,98330.06
2023-01-09T22:22:51.516Z,98335.28
2023-01-09T22:25:18.224Z,98340.69
2023-01-09T22:27:44.785Z,98340.50
2023-01-09T22:30:12.211Z,98353.50
2023-01-09T22:32:38.817Z,98358.88
2023-01-09T22:35:06.659Z,98355.09
2023-01-09T22:37:34.697Z,98361.72
2023-01-09T22:40:01.193Z,98363.13
2023-01-09T22:42:27.836Z,98363.44
2023-01-09T22:44:54.373Z,98371.31
2023-01-09T22:47:20.965Z,98384.94
2023-01-09T22:49:52.713Z,98390.94
2023-01-09T22:52:19.842Z,98397.91
2023-01-09T22:54:48.434Z,98400.44
2023-01-09T22:57:15.052Z,98407.09
2023-01-09T22:59:41.637Z,98402.50
2023-01-09T23:02:08.343Z,98406.59
2023-01-09T23:04:34.934Z,98402.94
2023-01-09T23:07:01.508Z,98403.75
2023-01-09T23:09:28.387Z,98413.22
2023-01-09T23:11:56.231Z,98410.53
2023-01-09T23:14:22.833Z,98413.53
2023-01-09T23:16:49.575Z,98410.66
2023-01-09T23:19:16.244Z,98415.56
2023-01-09T23:21:43.905Z,98423.72
2023-01-09T23:24:11.666Z,98429.75
2023-01-09T23:26:38.278Z,98426.25
2023-01-09T23:29:07.238Z,98432.94
2023-01-09T23:31:34.212Z,98433.25
2023-01-09T23:34:01.195Z,98434.84
2023-01-09T23:36:27.883Z,98443.72
2023-01-09T23:38:54.401Z,98456.84
2023-01-09T23:41:20.955Z,98459.06
2023-01-09T23:43:48.028Z,98459.88
2023-01-09T23:46:15.970Z,98460.69
2023-01-09T23:48:42.547Z,98464.34
2023-01-09T23:51:09.119Z,98457.66
2023-01-09T23:53:35.689Z,98467.03
2023-01-09T23:56:02.289Z,98468.44
2023-01-09T23:58:28.807Z,98463.66
